Time;durP1;ratioP1;P1;durP2;ratioP2;P2;SDS_P1;SDS_P2;PMS_P1;PMS_P2;Temp;Humidity;BMP_temperature;BMP_pressure;BME280_temperature;BME280_humidity;BME280_pressure;Samples;Min_cycle;Max_cycle;Signal;HPM_P1;HPM_P2
2021/04/07 00:00:31;;;;;;;22.88;21.17;;;;;;;;;;5094299;28;20199;-70
2021/04/07 00:02:58;;;;;;;21.83;20.42;;;;;;;;;;5094269;28;20250;-70
2021/04/07 00:05:27;;;;;;;21.70;20.30;;;;;;;;;;5094428;28;20183;-70
2021/04/07 00:07:54;;;;;;;21.60;20.08;;;;;;;;;;5094150;28;20579;-70
2021/04/07 00:10:23;;;;;;;21.20;19.55;;;;;;;;;;5094451;28;20590;-70
2021/04/07 00:12:50;;;;;;;22.98;21.20;;;;;;;;;;5094401;28;20193;-70
2021/04/07 00:15:19;;;;;;;20.25;19.13;;;;;;;;;;5094206;28;20540;-70
2021/04/07 00:17:46;;;;;;;22.42;20.88;;;;;;;;;;5094276;28;20190;-70
2021/04/07 00:20:14;;;;;;;23.45;21.60;;;;;;;;;;5094270;28;20194;-70
2021/04/07 00:22:41;;;;;;;21.15;19.95;;;;;;;;;;5093882;28;20190;-70
2021/04/07 00:25:09;;;;;;;22.08;20.67;;;;;;;;;;5093816;28;20209;-70
2021/04/07 00:27:37;;;;;;;22.27;20.60;;;;;;;;;;5093711;28;20214;-70
2021/04/07 00:30:04;;;;;;;22.25;20.40;;;;;;;;;;5093712;28;20359;-70
2021/04/07 00:32:32;;;;;;;20.38;19.17;;;;;;;;;;5094099;28;20225;-70
2021/04/07 00:34:59;;;;;;;20.15;19.00;;;;;;;;;;5093882;28;20263;-70
2021/04/07 00:37:26;;;;;;;22.10;20.40;;;;;;;;;;5094057;28;20198;-70
2021/04/07 00:39:53;;;;;;;21.55;19.95;;;;;;;;;;5094033;28;20191;-70
2021/04/07 00:42:20;;;;;;;20.58;19.15;;;;;;;;;;5093657;28;20187;-70
2021/04/07 00:44:47;;;;;;;22.35;20.52;;;;;;;;;;5093634;28;20698;-70
2021/04/07 00:47:16;;;;;;;20.67;19.40;;;;;;;;;;5093584;28;20679;-70
2021/04/07 00:49:44;;;;;;;21.27;19.88;;;;;;;;;;5093688;28;20745;-70
2021/04/07 00:52:11;;;;;;;22.20;20.30;;;;;;;;;;5093914;28;20198;-70
2021/04/07 00:54:38;;;;;;;21.27;19.95;;;;;;;;;;5093474;28;20241;-70
2021/04/07 00:57:05;;;;;;;22.77;21.00;;;;;;;;;;5093451;28;20191;-70
2021/04/07 00:59:32;;;;;;;22.67;20.88;;;;;;;;;;5093829;28;20191;-70
2021/04/07 01:01:59;;;;;;;22.40;20.58;;;;;;;;;;5093807;28;20193;-70
2021/04/07 01:04:26;;;;;;;23.35;21.67;;;;;;;;;;5093657;28;20195;-70
2021/04/07 01:06:54;;;;;;;21.00;19.17;;;;;;;;;;5096993;28;20272;-70
2021/04/07 01:09:21;;;;;;;21.83;20.33;;;;;;;;;;5097692;28;20190;-70
2021/04/07 01:11:48;;;;;;;22.73;21.27;;;;;;;;;;5097916;28;20187;-70
2021/04/07 01:14:15;;;;;;;22.70;20.88;;;;;;;;;;5097454;28;20190;-70
2021/04/07 01:16:42;;;;;;;22.35;20.67;;;;;;;;;;5097869;28;20198;-70
2021/04/07 01:19:09;;;;;;;23.38;21.60;;;;;;;;;;5097432;28;20198;-70
2021/04/07 01:21:37;;;;;;;21.90;20.55;;;;;;;;;;5097362;28;20187;-70
2021/04/07 01:24:05;;;;;;;23.52;22.00;;;;;;;;;;5097182;28;20629;-70
2021/04/07 01:26:32;;;;;;;23.08;20.60;;;;;;;;;;5097422;28;20290;-70
2021/04/07 01:28:59;;;;;;;24.25;22.27;;;;;;;;;;5097115;28;20203;-70
2021/04/07 01:31:26;;;;;;;23.75;21.80;;;;;;;;;;5097134;28;20186;-70
2021/04/07 01:33:52;;;;;;;22.55;20.95;;;;;;;;;;5097950;28;20191;-70
2021/04/07 01:36:22;;;;;;;23.75;21.90;;;;;;;;;;5097297;28;20260;-70
2021/04/07 01:38:49;;;;;;;23.25;21.52;;;;;;;;;;5097054;28;20223;-70
2021/04/07 01:41:18;;;;;;;21.95;20.05;;;;;;;;;;5096958;28;20191;-70
2021/04/07 01:43:45;;;;;;;22.55;21.02;;;;;;;;;;5096821;28;20633;-70
2021/04/07 01:46:12;;;;;;;22.17;20.77;;;;;;;;;;5096799;28;20211;-70
2021/04/07 01:48:39;;;;;;;21.25;19.83;;;;;;;;;;5097151;28;20187;-71
2021/04/07 01:51:07;;;;;;;21.95;20.58;;;;;;;;;;5097058;28;20194;-70
2021/04/07 01:53:33;;;;;;;21.88;20.23;;;;;;;;;;5096449;28;20230;-70
2021/04/07 01:56:00;;;;;;;23.20;21.25;;;;;;;;;;5097013;28;20265;-70
2021/04/07 01:58:28;;;;;;;21.98;20.58;;;;;;;;;;5096792;28;20194;-70
2021/04/07 02:00:55;;;;;;;21.45;20.15;;;;;;;;;;5096891;28;20190;-70
2021/04/07 02:03:22;;;;;;;20.88;19.45;;;;;;;;;;5096554;28;20226;-70
2021/04/07 02:05:49;;;;;;;21.83;20.33;;;;;;;;;;5096314;28;20210;-70
2021/04/07 02:08:16;;;;;;;22.15;20.67;;;;;;;;;;5096496;28;20213;-70
2021/04/07 02:10:43;;;;;;;20.90;19.73;;;;;;;;;;5096679;28;20251;-70
2021/04/07 02:13:10;;;;;;;22.08;20.45;;;;;;;;;;5096724;28;20256;-70
2021/04/07 02:15:37;;;;;;;22.45;20.90;;;;;;;;;;5096533;28;20183;-71
2021/04/07 02:18:04;;;;;;;21.90;20.38;;;;;;;;;;5096127;28;20194;-70
2021/04/07 02:20:31;;;;;;;22.73;21.30;;;;;;;;;;5096545;28;20187;-70
2021/04/07 02:22:58;;;;;;;21.13;19.70;;;;;;;;;;5096500;28;20225;-71
2021/04/07 02:25:25;;;;;;;21.33;19.85;;;;;;;;;;5096370;28;20660;-70
2021/04/07 02:27:52;;;;;;;20.92;19.63;;;;;;;;;;5095981;28;20369;-70
2021/04/07 02:30:19;;;;;;;21.00;19.50;;;;;;;;;;5096271;28;20226;-70
2021/04/07 02:32:47;;;;;;;21.08;19.95;;;;;;;;;;5096346;28;20202;-70
2021/04/07 02:35:14;;;;;;;20.83;19.52;;;;;;;;;;5096185;28;20221;-70
2021/04/07 02:37:41;;;;;;;20.88;19.42;;;;;;;;;;5096830;28;20198;-70
2021/04/07 02:40:08;;;;;;;20.65;19.25;;;;;;;;;;5095840;28;20195;-70
2021/04/07 02:42:35;;;;;;;20.55;19.30;;;;;;;;;;5096079;28;20194;-70
2021/04/07 02:45:02;;;;;;;22.88;20.80;;;;;;;;;;5095979;28;20210;-73
2021/04/07 02:47:29;;;;;;;22.45;20.63;;;;;;;;;;5095941;28;20215;-73
2021/04/07 02:49:57;;;;;;;21.65;20.23;;;;;;;;;;5094809;28;20534;-73
2021/04/07 02:52:24;;;;;;;21.67;19.98;;;;;;;;;;5095843;28;20604;-73
2021/04/07 02:54:50;;;;;;;23.00;20.92;;;;;;;;;;5095483;28;20234;-73
2021/04/07 02:57:17;;;;;;;20.65;19.20;;;;;;;;;;5095486;28;20191;-73
2021/04/07 02:59:45;;;;;;;22.90;20.98;;;;;;;;;;5095489;28;20416;-73
2021/04/07 03:02:11;;;;;;;22.58;20.85;;;;;;;;;;5095768;28;20191;-72
2021/04/07 03:04:38;;;;;;;22.00;20.30;;;;;;;;;;5095597;28;20194;-73
2021/04/07 03:07:06;;;;;;;21.98;20.40;;;;;;;;;;5095365;28;20214;-73
2021/04/07 03:09:33;;;;;;;22.70;20.90;;;;;;;;;;5095583;28;20192;-72
2021/04/07 03:12:00;;;;;;;20.40;19.25;;;;;;;;;;5095287;28;20187;-73
2021/04/07 03:14:27;;;;;;;21.92;20.67;;;;;;;;;;5095416;28;20656;-73
2021/04/07 03:16:54;;;;;;;20.88;19.58;;;;;;;;;;5095403;28;20194;-73
2021/04/07 03:19:20;;;;;;;22.20;20.00;;;;;;;;;;5095466;28;20190;-73
2021/04/07 03:21:47;;;;;;;22.67;21.13;;;;;;;;;;5095246;28;20648;-73
2021/04/07 03:24:16;;;;;;;23.58;21.33;;;;;;;;;;5095326;28;20541;-72
2021/04/07 03:26:43;;;;;;;23.00;21.15;;;;;;;;;;5094820;28;20684;-73
2021/04/07 03:29:09;;;;;;;21.30;19.80;;;;;;;;;;5093025;28;20221;-73
2021/04/07 03:31:36;;;;;;;21.67;20.23;;;;;;;;;;5095796;28;20187;-73
2021/04/07 03:34:03;;;;;;;22.48;20.90;;;;;;;;;;5095129;28;20187;-73
2021/04/07 03:36:30;;;;;;;22.38;20.48;;;;;;;;;;5094797;28;20191;-72
2021/04/07 03:38:57;;;;;;;20.95;19.42;;;;;;;;;;5095096;28;20194;-70
2021/04/07 03:41:25;;;;;;;23.80;22.10;;;;;;;;;;5094690;28;20641;-70
2021/04/07 03:43:52;;;;;;;23.35;21.30;;;;;;;;;;5094573;28;20664;-70
2021/04/07 03:46:18;;;;;;;20.63;18.88;;;;;;;;;;5094208;28;20309;-70
2021/04/07 03:48:45;;;;;;;22.92;20.85;;;;;;;;;;5094549;28;20195;-70
2021/04/07 03:51:12;;;;;;;23.45;21.70;;;;;;;;;;5094801;28;20214;-70
2021/04/07 03:53:39;;;;;;;23.92;21.83;;;;;;;;;;5094482;28;20234;-70
2021/04/07 03:56:06;;;;;;;20.30;18.80;;;;;;;;;;5094748;28;20195;-70
2021/04/07 03:58:34;;;;;;;22.23;20.63;;;;;;;;;;5094711;28;20210;-70
2021/04/07 04:01:03;;;;;;;20.35;19.05;;;;;;;;;;5093505;28;20194;-70
2021/04/07 04:03:30;;;;;;;21.67;19.95;;;;;;;;;;5094541;28;20218;-70
2021/04/07 04:05:57;;;;;;;21.40;19.80;;;;;;;;;;5094541;28;20187;-70
2021/04/07 04:08:23;;;;;;;22.08;20.33;;;;;;;;;;5094540;28;20191;-70
2021/04/07 04:10:51;;;;;;;21.98;20.58;;;;;;;;;;5094490;28;20183;-70
2021/04/07 04:13:18;;;;;;;22.00;20.48;;;;;;;;;;5094082;28;20666;-70
2021/04/07 04:15:46;;;;;;;21.27;20.05;;;;;;;;;;5094423;28;20647;-70
2021/04/07 04:18:13;;;;;;;20.83;19.30;;;;;;;;;;5094298;28;20199;-70
2021/04/07 04:20:40;;;;;;;21.50;20.00;;;;;;;;;;5094022;28;20187;-71
2021/04/07 04:23:07;;;;;;;22.60;21.10;;;;;;;;;;5093980;28;20638;-70
2021/04/07 04:25:34;;;;;;;21.70;20.20;;;;;;;;;;5094193;28;20294;-70
2021/04/07 04:28:01;;;;;;;21.85;20.40;;;;;;;;;;5094052;28;20215;-70
2021/04/07 04:30:28;;;;;;;20.02;18.90;;;;;;;;;;5093723;28;20222;-70
2021/04/07 04:32:56;;;;;;;21.95;19.90;;;;;;;;;;5093851;28;20191;-70
2021/04/07 04:35:23;;;;;;;23.27;21.85;;;;;;;;;;5093609;28;20560;-70
2021/04/07 04:37:50;;;;;;;22.92;21.23;;;;;;;;;;5093800;28;20239;-70
2021/04/07 04:40:17;;;;;;;23.55;21.50;;;;;;;;;;5093869;28;20183;-70
2021/04/07 04:42:44;;;;;;;20.98;19.77;;;;;;;;;;5094085;28;20183;-70
2021/04/07 04:45:11;;;;;;;24.95;22.70;;;;;;;;;;5093886;28;20194;-70
2021/04/07 04:47:38;;;;;;;22.58;21.05;;;;;;;;;;5093620;28;20214;-70
2021/04/07 04:50:07;;;;;;;26.50;23.90;;;;;;;;;;5092363;28;20734;-70
2021/04/07 04:52:34;;;;;;;23.60;21.88;;;;;;;;;;5093864;28;20648;-70
2021/04/07 04:55:01;;;;;;;23.90;22.35;;;;;;;;;;5093356;28;20692;-70
2021/04/07 04:57:28;;;;;;;24.30;21.80;;;;;;;;;;5093723;28;20203;-70
2021/04/07 04:59:55;;;;;;;24.23;22.63;;;;;;;;;;5093588;28;20187;-70
2021/04/07 05:02:22;;;;;;;25.80;23.58;;;;;;;;;;5093475;28;20183;-70
2021/04/07 05:04:49;;;;;;;22.67;21.13;;;;;;;;;;5093422;28;20700;-70
2021/04/07 05:07:17;;;;;;;25.70;23.77;;;;;;;;;;5093693;28;20218;-70
2021/04/07 05:09:44;;;;;;;26.85;24.75;;;;;;;;;;5093454;28;20633;-70
2021/04/07 05:12:11;;;;;;;24.88;22.90;;;;;;;;;;5093721;28;20183;-70
2021/04/07 05:14:38;;;;;;;24.13;22.23;;;;;;;;;;5093654;28;20281;-70
2021/04/07 05:17:05;;;;;;;22.48;20.88;;;;;;;;;;5093680;28;20191;-70
2021/04/07 05:19:32;;;;;;;21.83;20.27;;;;;;;;;;5092189;28;20191;-70
2021/04/07 05:21:59;;;;;;;23.00;21.30;;;;;;;;;;5093602;28;20183;-70
2021/04/07 05:24:27;;;;;;;25.10;23.10;;;;;;;;;;5093283;28;20208;-70
2021/04/07 05:26:54;;;;;;;24.10;22.30;;;;;;;;;;5093407;28;20218;-70
2021/04/07 05:29:21;;;;;;;24.80;22.80;;;;;;;;;;5093367;28;20230;-72
2021/04/07 05:31:48;;;;;;;25.35;23.27;;;;;;;;;;5093229;28;20198;-71
2021/04/07 05:34:14;;;;;;;21.27;19.83;;;;;;;;;;5093194;28;20668;-70
2021/04/07 05:36:41;;;;;;;23.50;21.50;;;;;;;;;;5093531;28;20190;-71
2021/04/07 05:39:08;;;;;;;23.60;22.10;;;;;;;;;;5093511;28;20265;-70
2021/04/07 05:41:36;;;;;;;24.63;22.73;;;;;;;;;;5093435;28;20194;-71
2021/04/07 05:44:03;;;;;;;22.85;21.35;;;;;;;;;;5093026;28;20195;-72
2021/04/07 05:46:30;;;;;;;24.30;22.55;;;;;;;;;;5093333;28;20211;-72
2021/04/07 05:48:57;;;;;;;25.85;23.85;;;;;;;;;;5092988;28;20203;-72
2021/04/07 05:51:24;;;;;;;23.95;21.98;;;;;;;;;;5093961;28;20525;-71
2021/04/07 05:53:51;;;;;;;25.92;23.83;;;;;;;;;;5096691;28;20253;-71
2021/04/07 05:56:18;;;;;;;24.73;22.73;;;;;;;;;;5096570;28;20187;-72
2021/04/07 05:58:46;;;;;;;24.50;22.40;;;;;;;;;;5096700;28;20183;-71
2021/04/07 06:01:12;;;;;;;26.00;23.85;;;;;;;;;;5097040;28;20186;-71
2021/04/07 06:03:39;;;;;;;22.80;21.38;;;;;;;;;;5096582;28;20186;-71
2021/04/07 06:06:07;;;;;;;25.92;24.13;;;;;;;;;;5096357;28;20191;-71
2021/04/07 06:08:34;;;;;;;24.10;22.02;;;;;;;;;;5096676;28;20190;-70
2021/04/07 06:11:01;;;;;;;23.70;21.67;;;;;;;;;;5096811;28;20194;-71
2021/04/07 06:13:28;;;;;;;22.35;20.70;;;;;;;;;;5096683;28;20187;-71
2021/04/07 06:15:56;;;;;;;24.38;22.00;;;;;;;;;;5096343;28;20187;-71
2021/04/07 06:18:23;;;;;;;25.13;23.23;;;;;;;;;;5096643;28;20202;-71
2021/04/07 06:20:51;;;;;;;23.83;22.02;;;;;;;;;;5096546;28;20240;-71
2021/04/07 06:23:18;;;;;;;22.40;20.80;;;;;;;;;;5096250;28;20244;-71
2021/04/07 06:25:45;;;;;;;25.30;23.05;;;;;;;;;;5096553;28;20194;-71
2021/04/07 06:28:13;;;;;;;25.55;22.88;;;;;;;;;;5096018;28;20240;-71
2021/04/07 06:30:43;;;;;;;29.17;26.15;;;;;;;;;;5096206;28;20230;-71
2021/04/07 06:33:15;;;;;;;27.95;25.42;;;;;;;;;;5096268;28;20293;-71
2021/04/07 06:35:44;;;;;;;26.95;24.85;;;;;;;;;;5095999;28;20191;-71
2021/04/07 06:38:11;;;;;;;24.92;23.27;;;;;;;;;;5096262;28;20217;-71
2021/04/07 06:40:38;;;;;;;27.02;24.70;;;;;;;;;;5096284;28;20183;-71
2021/04/07 06:43:05;;;;;;;27.67;25.58;;;;;;;;;;5096109;28;20194;-71
2021/04/07 06:45:33;;;;;;;27.70;25.38;;;;;;;;;;5096086;28;20191;-72
2021/04/07 06:48:00;;;;;;;29.00;26.05;;;;;;;;;;5095693;28;20221;-71
2021/04/07 06:50:28;;;;;;;25.83;24.02;;;;;;;;;;5095685;28;20519;-71
2021/04/07 06:52:58;;;;;;;24.45;22.90;;;;;;;;;;5095757;28;20188;-71
2021/04/07 06:55:25;;;;;;;27.70;25.40;;;;;;;;;;5095479;28;20284;-70
2021/04/07 06:57:52;;;;;;;24.98;23.27;;;;;;;;;;5096042;28;20283;-71
2021/04/07 07:00:20;;;;;;;28.90;26.50;;;;;;;;;;5096328;28;20540;-71
2021/04/07 07:02:47;;;;;;;30.88;28.40;;;;;;;;;;5095575;28;20570;-70
2021/04/07 07:05:18;;;;;;;30.00;27.50;;;;;;;;;;5095697;28;20187;-72
2021/04/07 07:07:45;;;;;;;31.50;28.75;;;;;;;;;;5094092;28;20684;-70
2021/04/07 07:10:13;;;;;;;33.38;30.40;;;;;;;;;;5095031;28;20214;-71
2021/04/07 07:12:40;;;;;;;34.70;31.70;;;;;;;;;;5095217;28;20194;-72
2021/04/07 07:15:08;;;;;;;29.17;26.42;;;;;;;;;;5095459;28;20187;-71
2021/04/07 07:17:35;;;;;;;32.15;29.05;;;;;;;;;;5095179;28;20187;-71
2021/04/07 07:20:02;;;;;;;36.25;33.03;;;;;;;;;;5095435;28;20198;-72
2021/04/07 07:22:30;;;;;;;37.15;33.53;;;;;;;;;;5095406;28;20186;-72
2021/04/07 07:24:59;;;;;;;40.13;36.13;;;;;;;;;;5095221;28;20188;-72
2021/04/07 07:27:36;;;;;;;40.40;36.25;;;;;;;;;;5095133;28;20219;-72
2021/04/07 07:30:05;;;;;;;38.17;34.25;;;;;;;;;;5094761;28;20264;-71
2021/04/07 07:32:32;;;;;;;43.95;39.20;;;;;;;;;;5094138;28;20187;-73
2021/04/07 07:35:07;;;;;;;36.13;32.75;;;;;;;;;;5094387;28;20721;-74
2021/04/07 07:37:33;;;;;;;42.50;37.45;;;;;;;;;;5093995;28;20255;-74
2021/04/07 07:40:01;;;;;;;42.97;38.50;;;;;;;;;;5094716;28;20187;-73
2021/04/07 07:42:29;;;;;;;38.38;34.78;;;;;;;;;;5094707;28;20187;-74
2021/04/07 07:44:56;;;;;;;41.08;36.97;;;;;;;;;;5094592;28;20660;-74
2021/04/07 07:47:26;;;;;;;44.53;39.72;;;;;;;;;;5093029;28;20219;-73
2021/04/07 07:49:57;;;;;;;44.33;39.65;;;;;;;;;;5094899;28;20298;-74
2021/04/07 07:52:30;;;;;;;39.78;35.45;;;;;;;;;;5094781;28;20283;-74
2021/04/07 07:54:58;;;;;;;44.65;37.28;;;;;;;;;;5092916;28;20569;-73
2021/04/07 07:57:26;;;;;;;43.65;39.30;;;;;;;;;;5094161;28;20214;-73
2021/04/07 07:59:57;;;;;;;31.90;29.15;;;;;;;;;;5094654;28;20598;-70
2021/04/07 08:02:30;;;;;;;34.55;31.27;;;;;;;;;;5094495;28;20187;-70
2021/04/07 08:04:56;;;;;;;39.33;35.55;;;;;;;;;;5094123;28;20191;-70
2021/04/07 08:07:23;;;;;;;38.55;34.63;;;;;;;;;;5094006;28;20215;-69
2021/04/07 08:09:50;;;;;;;40.00;36.05;;;;;;;;;;5094245;28;20186;-70
2021/04/07 08:12:18;;;;;;;34.95;31.55;;;;;;;;;;5094536;28;20210;-70
2021/04/07 08:14:48;;;;;;;42.42;38.03;;;;;;;;;;5093501;28;20187;-70
2021/04/07 08:17:15;;;;;;;42.20;38.00;;;;;;;;;;5094350;28;20194;-70
2021/04/07 08:19:43;;;;;;;41.58;37.58;;;;;;;;;;5093968;28;20191;-72
2021/04/07 08:22:12;;;;;;;38.60;35.17;;;;;;;;;;5094116;28;20188;-73
2021/04/07 08:24:40;;;;;;;33.15;30.42;;;;;;;;;;5093899;28;20195;-71
2021/04/07 08:27:09;;;;;;;33.75;30.50;;;;;;;;;;5093650;28;20250;-70
2021/04/07 08:29:41;;;;;;;31.15;28.42;;;;;;;;;;5093935;28;20261;-70
2021/04/07 08:32:09;;;;;;;35.47;32.28;;;;;;;;;;5094101;28;20183;-75
2021/04/07 08:34:36;;;;;;;28.10;25.75;;;;;;;;;;5094087;28;20187;-75
2021/04/07 08:37:03;;;;;;;37.67;34.05;;;;;;;;;;5093734;28;20201;-75
2021/04/07 08:39:30;;;;;;;31.77;28.70;;;;;;;;;;5093762;28;20202;-75
2021/04/07 08:41:58;;;;;;;33.20;30.23;;;;;;;;;;5076191;28;20247;-76
2021/04/07 08:44:24;;;;;;;39.58;35.70;;;;;;;;;;5093951;28;20599;-76
2021/04/07 08:46:53;;;;;;;34.92;31.52;;;;;;;;;;5093764;28;20212;-76
2021/04/07 08:49:38;;;;;;;38.38;34.83;;;;;;;;;;5093662;28;20191;-76
2021/04/07 08:52:16;;;;;;;40.22;36.53;;;;;;;;;;5093611;28;20191;-75
2021/04/07 08:54:46;;;;;;;39.00;35.45;;;;;;;;;;5093512;28;20234;-75
2021/04/07 08:57:27;;;;;;;27.73;25.40;;;;;;;;;;5093886;28;20202;-74
2021/04/07 08:59:54;;;;;;;38.80;34.95;;;;;;;;;;5093988;28;20187;-75
2021/04/07 09:02:21;;;;;;;31.05;28.55;;;;;;;;;;5093604;28;20205;-76
2021/04/07 09:05:03;;;;;;;36.22;33.13;;;;;;;;;;5093561;28;20195;-75
2021/04/07 09:07:39;;;;;;;40.55;36.55;;;;;;;;;;5093702;28;20222;-75
2021/04/07 09:10:14;;;;;;;31.70;29.00;;;;;;;;;;5093606;28;20188;-75
2021/04/07 09:12:41;;;;;;;40.92;37.05;;;;;;;;;;5093767;28;20519;-73
2021/04/07 09:15:18;;;;;;;39.05;35.25;;;;;;;;;;5092370;28;20194;-73
2021/04/07 09:17:45;;;;;;;33.17;30.15;;;;;;;;;;5092437;28;20186;-73
2021/04/07 09:20:32;;;;;;;38.20;34.70;;;;;;;;;;5093677;28;20189;-72
2021/04/07 09:23:16;;;;;;;36.95;33.55;;;;;;;;;;5092491;28;20256;-77
2021/04/07 09:25:47;;;;;;;38.65;35.20;;;;;;;;;;5093762;28;20195;-77
2021/04/07 09:28:33;;;;;;;32.08;29.08;;;;;;;;;;5096924;28;20232;-76
2021/04/07 09:31:05;;;;;;;35.00;32.00;;;;;;;;;;5097556;28;20545;-74
2021/04/07 09:33:32;;;;;;;29.30;27.00;;;;;;;;;;5097453;28;20199;-74
2021/04/07 09:36:01;;;;;;;34.00;31.08;;;;;;;;;;5097250;28;20191;-75
2021/04/07 09:38:28;;;;;;;37.67;34.30;;;;;;;;;;5097196;28;20228;-74
2021/04/07 09:41:11;;;;;;;38.92;35.55;;;;;;;;;;5097021;28;20556;-74
2021/04/07 09:43:38;;;;;;;30.90;28.60;;;;;;;;;;5097050;28;20264;-74
2021/04/07 09:46:06;;;;;;;35.10;32.03;;;;;;;;;;5096891;28;20237;-74
2021/04/07 09:48:46;;;;;;;33.60;30.52;;;;;;;;;;5097150;28;20219;-75
2021/04/07 09:51:18;;;;;;;35.70;32.60;;;;;;;;;;5097236;28;20329;-74
2021/04/07 09:53:46;;;;;;;35.10;32.00;;;;;;;;;;5087534;28;20220;-74
2021/04/07 09:56:13;;;;;;;36.92;33.63;;;;;;;;;;5087618;28;20223;-70
2021/04/07 09:58:46;;;;;;;33.33;30.60;;;;;;;;;;5082010;28;20196;-70
2021/04/07 10:01:14;;;;;;;30.48;28.13;;;;;;;;;;5080304;28;20207;-70
2021/04/07 10:03:51;;;;;;;30.08;27.67;;;;;;;;;;5083515;28;20686;-70
2021/04/07 10:06:20;;;;;;;32.20;29.50;;;;;;;;;;5085501;28;20650;-70
2021/04/07 10:08:57;;;;;;;32.28;29.48;;;;;;;;;;5083782;28;20223;-70
2021/04/07 10:11:24;;;;;;;32.92;30.23;;;;;;;;;;5084925;28;20192;-70
2021/04/07 10:13:51;;;;;;;24.67;23.08;;;;;;;;;;5083966;28;20188;-70
2021/04/07 10:16:18;;;;;;;23.27;21.73;;;;;;;;;;5085380;28;20189;-71
2021/04/07 10:18:45;;;;;;;25.35;23.45;;;;;;;;;;5084576;28;20190;-70
2021/04/07 10:21:14;;;;;;;26.67;24.83;;;;;;;;;;5086418;28;20180;-70
2021/04/07 10:23:42;;;;;;;23.92;22.17;;;;;;;;;;5086019;28;20212;-70
2021/04/07 10:26:09;;;;;;;29.50;27.30;;;;;;;;;;5079072;28;20187;-70
2021/04/07 10:28:36;;;;;;;26.33;24.50;;;;;;;;;;5075750;28;20220;-70
2021/04/07 10:31:08;;;;;;;24.45;22.95;;;;;;;;;;5076161;28;20216;-70
2021/04/07 10:33:35;;;;;;;28.05;26.05;;;;;;;;;;5074544;28;20188;-69
2021/04/07 10:36:02;;;;;;;26.13;24.25;;;;;;;;;;5074322;28;20200;-69
2021/04/07 10:38:32;;;;;;;25.95;24.05;;;;;;;;;;5074172;28;20199;-70
2021/04/07 10:41:00;;;;;;;21.45;20.15;;;;;;;;;;5075976;28;20235;-70
2021/04/07 10:43:30;;;;;;;23.83;22.15;;;;;;;;;;5075657;28;20185;-69
2021/04/07 10:45:58;;;;;;;22.83;21.23;;;;;;;;;;5075611;28;20308;-69
2021/04/07 10:48:25;;;;;;;22.38;20.98;;;;;;;;;;5075633;28;20289;-70
2021/04/07 10:50:53;;;;;;;24.42;22.58;;;;;;;;;;5075902;28;20195;-69
2021/04/07 10:53:33;;;;;;;23.85;22.35;;;;;;;;;;5074897;28;20745;-70
2021/04/07 10:56:02;;;;;;;23.40;21.75;;;;;;;;;;5075611;28;20192;-70
2021/04/07 10:58:29;;;;;;;22.25;20.35;;;;;;;;;;5074947;28;20208;-70
2021/04/07 11:00:56;;;;;;;22.27;20.92;;;;;;;;;;5075615;28;20188;-70
2021/04/07 11:03:33;;;;;;;23.55;22.10;;;;;;;;;;5075123;28;20192;-70
2021/04/07 11:06:00;;;;;;;22.95;21.30;;;;;;;;;;5093745;28;20518;-70
2021/04/07 11:08:36;;;;;;;22.88;21.25;;;;;;;;;;5090398;28;20243;-70
2021/04/07 11:11:05;;;;;;;22.70;21.13;;;;;;;;;;5075051;28;20275;-70
2021/04/07 11:13:32;;;;;;;22.65;21.25;;;;;;;;;;5075269;28;20197;-70
2021/04/07 11:16:11;;;;;;;22.75;21.20;;;;;;;;;;5075201;28;20221;-70
2021/04/07 11:18:40;;;;;;;24.83;23.17;;;;;;;;;;5074731;28;20195;-70
2021/04/07 11:21:07;;;;;;;24.20;22.80;;;;;;;;;;5073802;28;20719;-70
2021/04/07 11:23:35;;;;;;;23.15;21.65;;;;;;;;;;5074687;28;20192;-70
2021/04/07 11:26:02;;;;;;;23.45;22.05;;;;;;;;;;5075052;28;20189;-70
2021/04/07 11:28:30;;;;;;;21.92;20.52;;;;;;;;;;5074499;28;20264;-70
2021/04/07 11:31:08;;;;;;;22.90;21.33;;;;;;;;;;5074581;28;20647;-70
2021/04/07 11:33:47;;;;;;;23.50;21.25;;;;;;;;;;5074531;28;20611;-70
2021/04/07 11:36:29;;;;;;;22.40;21.00;;;;;;;;;;5074550;28;20647;-70
2021/04/07 11:39:00;;;;;;;22.92;21.35;;;;;;;;;;5074681;28;20295;-70
2021/04/07 11:44:28;;;;;;;22.95;21.45;;;;;;;;;;5012672;28;20210;-70
2021/04/07 11:46:55;;;;;;;22.83;21.35;;;;;;;;;;5012410;28;20233;-71
2021/04/07 11:49:22;;;;;;;23.27;21.67;;;;;;;;;;4995408;28;20213;-70
2021/04/07 11:51:49;;;;;;;23.55;22.00;;;;;;;;;;5012773;28;20207;-71
2021/04/07 11:54:16;;;;;;;24.05;22.55;;;;;;;;;;5012286;28;20230;-70
2021/04/07 11:56:45;;;;;;;21.92;20.52;;;;;;;;;;5012403;28;20230;-70
2021/04/07 11:59:12;;;;;;;24.08;22.30;;;;;;;;;;5012377;28;20634;-71
2021/04/07 12:01:41;;;;;;;23.95;22.45;;;;;;;;;;5012605;28;20293;-71
2021/04/07 12:04:08;;;;;;;21.48;20.25;;;;;;;;;;5012344;28;20195;-73
2021/04/07 12:06:35;;;;;;;21.13;19.92;;;;;;;;;;5012134;28;20215;-71
2021/04/07 12:09:02;;;;;;;22.67;21.10;;;;;;;;;;5012217;28;20218;-70
2021/04/07 12:11:29;;;;;;;23.65;21.80;;;;;;;;;;5012369;28;20549;-70
2021/04/07 12:13:56;;;;;;;22.65;21.25;;;;;;;;;;5011962;28;20635;-70
2021/04/07 12:16:23;;;;;;;22.92;21.38;;;;;;;;;;5012246;28;20213;-70
2021/04/07 12:18:51;;;;;;;26.85;24.70;;;;;;;;;;5012438;28;20195;-75
2021/04/07 12:21:18;;;;;;;24.05;22.45;;;;;;;;;;5073676;28;20550;-70
2021/04/07 12:23:46;;;;;;;24.75;22.88;;;;;;;;;;5073972;28;20188;-70
2021/04/07 12:26:15;;;;;;;20.90;19.30;;;;;;;;;;5073365;28;20227;-70
2021/04/07 12:28:42;;;;;;;22.48;20.88;;;;;;;;;;5073769;28;20220;-71
2021/04/07 12:31:11;;;;;;;19.55;18.55;;;;;;;;;;5072723;28;20254;-70
2021/04/07 12:33:39;;;;;;;20.15;18.75;;;;;;;;;;5073757;28;20193;-70
2021/04/07 12:36:09;;;;;;;21.02;19.52;;;;;;;;;;5073495;28;20200;-70
2021/04/07 12:38:36;;;;;;;20.48;19.27;;;;;;;;;;5073597;28;20189;-70
2021/04/07 12:41:08;;;;;;;21.90;20.42;;;;;;;;;;5073747;28;20415;-70
2021/04/07 12:43:34;;;;;;;19.50;18.35;;;;;;;;;;5073543;28;20247;-71
2021/04/07 12:46:01;;;;;;;20.77;19.48;;;;;;;;;;5073388;28;20204;-70
2021/04/07 12:48:28;;;;;;;21.70;20.30;;;;;;;;;;5073442;28;20217;-71
2021/04/07 12:50:55;;;;;;;22.20;20.90;;;;;;;;;;5073461;28;20639;-70
2021/04/07 12:53:23;;;;;;;22.15;20.65;;;;;;;;;;5073232;28;20193;-71
2021/04/07 12:55:51;;;;;;;21.60;20.30;;;;;;;;;;5072486;28;20674;-70
2021/04/07 12:58:18;;;;;;;23.30;21.70;;;;;;;;;;5073514;28;20190;-70
2021/04/07 13:00:44;;;;;;;22.90;21.60;;;;;;;;;;5075666;28;20634;-70
2021/04/07 13:03:13;;;;;;;21.67;20.33;;;;;;;;;;5079950;28;20195;-71
2021/04/07 13:05:40;;;;;;;21.98;20.58;;;;;;;;;;5078837;28;20279;-70
2021/04/07 13:08:07;;;;;;;23.15;21.20;;;;;;;;;;5079984;28;20261;-70
2021/04/07 13:10:38;;;;;;;20.50;19.30;;;;;;;;;;5080002;28;20207;-80
2021/04/07 13:13:05;;;;;;;20.45;19.45;;;;;;;;;;5080358;28;20196;-76
2021/04/07 13:15:32;;;;;;;20.40;19.15;;;;;;;;;;5080490;28;20200;-77
2021/04/07 13:17:59;;;;;;;20.10;19.00;;;;;;;;;;5080046;28;20193;-72
2021/04/07 13:20:30;;;;;;;19.50;18.20;;;;;;;;;;5079178;28;20192;-76
2021/04/07 13:22:56;;;;;;;19.75;18.75;;;;;;;;;;5080026;28;20188;-77
2021/04/07 13:25:23;;;;;;;19.50;18.30;;;;;;;;;;5078792;28;20681;-77
2021/04/07 13:27:51;;;;;;;20.55;19.00;;;;;;;;;;5079980;28;20225;-76
2021/04/07 13:30:19;;;;;;;23.10;21.60;;;;;;;;;;5080081;28;20228;-76
2021/04/07 13:32:52;;;;;;;22.40;20.58;;;;;;;;;;5079533;28;20184;-70
2021/04/07 13:35:22;;;;;;;22.67;20.45;;;;;;;;;;5079888;28;20196;-70
2021/04/07 13:37:54;;;;;;;24.73;23.23;;;;;;;;;;5079562;28;20230;-70
2021/04/07 13:40:26;;;;;;;22.52;20.73;;;;;;;;;;5079453;28;20657;-70
2021/04/07 13:42:55;;;;;;;24.70;22.45;;;;;;;;;;5079610;28;20236;-71
2021/04/07 13:45:25;;;;;;;23.58;21.88;;;;;;;;;;5079451;28;20193;-71
2021/04/07 13:47:53;;;;;;;24.80;23.17;;;;;;;;;;5079728;28;20239;-71
2021/04/07 13:50:20;;;;;;;25.02;23.02;;;;;;;;;;5080034;28;20267;-79
2021/04/07 13:52:49;;;;;;;23.17;21.50;;;;;;;;;;5079498;28;20243;-71
2021/04/07 13:55:17;;;;;;;23.42;21.90;;;;;;;;;;5079396;28;20690;-70
2021/04/07 13:57:44;;;;;;;24.05;22.55;;;;;;;;;;5079309;28;20196;-71
2021/04/07 14:00:13;;;;;;;23.63;21.95;;;;;;;;;;5079875;28;20188;-71
2021/04/07 14:02:40;;;;;;;23.38;21.75;;;;;;;;;;5079705;28;20190;-71
2021/04/07 14:05:07;;;;;;;24.00;22.40;;;;;;;;;;5079783;28;20228;-70
2021/04/07 14:07:34;;;;;;;21.73;20.42;;;;;;;;;;5078342;28;20233;-71
2021/04/07 14:10:01;;;;;;;26.05;24.00;;;;;;;;;;5078514;28;20204;-71
2021/04/07 14:12:33;;;;;;;24.17;22.58;;;;;;;;;;5077464;28;20193;-70
2021/04/07 14:14:59;;;;;;;24.25;22.85;;;;;;;;;;5076589;28;20193;-71
2021/04/07 14:17:27;;;;;;;24.83;22.83;;;;;;;;;;5075951;28;20213;-70
2021/04/07 14:19:54;;;;;;;26.67;24.20;;;;;;;;;;5076446;28;20641;-70
2021/04/07 14:22:21;;;;;;;24.60;22.60;;;;;;;;;;5075075;28;20202;-71
2021/04/07 14:24:48;;;;;;;25.20;23.20;;;;;;;;;;5076318;28;20195;-70